createdAt,value
2022-12-29T00:01:15.978Z,11.60
2022-12-29T00:03:50.272Z,11.60
2022-12-29T00:06:26.441Z,11.60
2022-12-29T00:09:00.072Z,11.70
2022-12-29T00:11:31.410Z,11.60
2022-12-29T00:14:14.233Z,11.60
2022-12-29T00:16:49.317Z,11.60
2022-12-29T00:19:32.017Z,11.60
2022-12-29T00:22:15.132Z,11.60
2022-12-29T00:25:01.102Z,11.60
2022-12-29T00:27:44.623Z,11.60
2022-12-29T00:30:29.775Z,11.70
2022-12-29T00:33:12.783Z,11.70
2022-12-29T00:35:47.742Z,11.60
2022-12-29T00:38:30.825Z,11.60
2022-12-29T00:41:16.252Z,11.70
2022-12-29T00:43:58.908Z,11.70
2022-12-29T00:46:29.497Z,11.70
2022-12-29T00:49:12.536Z,11.70
2022-12-29T00:51:42.890Z,11.70
2022-12-29T00:54:13.235Z,11.70
2022-12-29T00:56:47.152Z,11.70
2022-12-29T00:59:17.893Z,11.80
2022-12-29T01:01:53.810Z,11.70
2022-12-29T01:04:25.082Z,11.80
2022-12-29T01:06:55.784Z,11.70
2022-12-29T01:09:38.694Z,11.80
2022-12-29T01:12:13.344Z,11.60
2022-12-29T01:14:45.150Z,11.70
2022-12-29T01:17:15.507Z,11.70
2022-12-29T01:19:45.805Z,11.80
2022-12-29T01:22:16.181Z,11.70
2022-12-29T01:24:48.286Z,11.70
2022-12-29T01:27:21.281Z,11.70
2022-12-29T01:29:51.579Z,11.70
2022-12-29T01:32:22.013Z,11.70
2022-12-29T01:34:52.502Z,11.70
2022-12-29T01:37:22.912Z,11.60
2022-12-29T01:39:53.304Z,11.60
2022-12-29T01:42:29.301Z,11.50
2022-12-29T01:45:00.841Z,11.50
2022-12-29T01:47:36.617Z,11.50
2022-12-29T01:50:12.740Z,11.50
2022-12-29T01:52:47.697Z,11.50
2022-12-29T01:55:18.915Z,11.50
2022-12-29T01:57:55.832Z,11.40
2022-12-29T02:00:26.312Z,11.40
2022-12-29T02:02:59.685Z,11.40
2022-12-29T02:05:36.061Z,11.40
2022-12-29T02:08:06.913Z,11.40
2022-12-29T02:10:40.867Z,11.40
2022-12-29T02:13:16.095Z,11.30
2022-12-29T02:16:04.035Z,11.30
2022-12-29T02:18:47.969Z,11.20
2022-12-29T02:21:51.182Z,11.20
2022-12-29T02:25:05.987Z,11.20
2022-12-29T02:28:09.955Z,11.20
2022-12-29T02:30:48.044Z,11.10
2022-12-29T02:33:29.466Z,11.10
2022-12-29T02:36:09.452Z,11.10
2022-12-29T02:38:54.360Z,11.10
2022-12-29T02:41:31.336Z,11.10
2022-12-29T02:44:14.691Z,11.10
2022-12-29T02:46:52.282Z,11.00
2022-12-29T02:49:28.787Z,11.00
2022-12-29T02:52:05.148Z,11.00
2022-12-29T02:54:45.684Z,11.00
2022-12-29T02:57:19.976Z,11.00
2022-12-29T02:59:55.682Z,11.00
2022-12-29T03:02:41.903Z,11.00
2022-12-29T03:05:26.286Z,10.90
2022-12-29T03:08:05.848Z,10.80
2022-12-29T03:10:46.107Z,10.80
2022-12-29T03:13:40.203Z,10.80
2022-12-29T03:16:18.620Z,10.70
2022-12-29T03:19:00.336Z,10.70
2022-12-29T03:21:50.239Z,10.70
2022-12-29T03:24:24.633Z,10.70
2022-12-29T03:26:59.208Z,10.70
2022-12-29T03:29:36.677Z,10.60
2022-12-29T03:32:11.210Z,10.60
2022-12-29T03:34:45.234Z,10.60
2022-12-29T03:37:18.934Z,10.60
2022-12-29T03:39:49.987Z,10.60
2022-12-29T03:42:24.927Z,10.60
2022-12-29T03:44:59.002Z,10.60
2022-12-29T03:47:30.169Z,10.60
2022-12-29T03:50:03.365Z,10.60
2022-12-29T03:52:36.632Z,10.60
2022-12-29T03:55:08.846Z,10.60
2022-12-29T03:57:39.195Z,10.60
2022-12-29T04:00:13.351Z,10.60
2022-12-29T04:02:49.383Z,10.60
2022-12-29T04:05:26.934Z,10.60
2022-12-29T04:07:59.046Z,10.60
2022-12-29T04:10:29.735Z,10.60
2022-12-29T04:13:03.209Z,10.60
2022-12-29T04:15:33.709Z,10.60
2022-12-29T04:18:05.053Z,10.60
2022-12-29T04:20:52.263Z,10.60
2022-12-29T04:23:22.634Z,10.50
2022-12-29T04:25:53.253Z,10.50
2022-12-29T04:28:23.667Z,10.50
2022-12-29T04:31:13.434Z,10.50
2022-12-29T04:33:46.124Z,10.50
2022-12-29T04:36:19.325Z,10.50
2022-12-29T04:38:49.838Z,10.50
2022-12-29T04:41:20.252Z,10.50
2022-12-29T04:43:51.834Z,10.50
2022-12-29T04:46:41.043Z,10.50
2022-12-29T04:49:14.834Z,10.50
2022-12-29T04:51:53.811Z,10.50
2022-12-29T04:54:24.424Z,10.50
2022-12-29T04:57:02.784Z,10.60
2022-12-29T04:59:33.146Z,10.60
2022-12-29T05:02:04.105Z,10.60
2022-12-29T05:04:37.153Z,10.60
2022-12-29T05:07:10.389Z,10.60
2022-12-29T05:09:41.426Z,10.70
2022-12-29T05:12:12.400Z,10.60
2022-12-29T05:14:51.394Z,10.70
2022-12-29T05:17:22.939Z,10.70
2022-12-29T05:19:53.268Z,10.70
2022-12-29T05:22:27.226Z,10.70
2022-12-29T05:24:59.530Z,10.70
2022-12-29T05:27:30.457Z,10.70
2022-12-29T05:30:21.679Z,10.70
2022-12-29T05:32:52.025Z,10.70
2022-12-29T05:35:22.666Z,10.70
2022-12-29T05:37:55.766Z,10.70
2022-12-29T05:40:26.126Z,10.70
2022-12-29T05:43:00.208Z,10.70
2022-12-29T05:45:53.088Z,10.70
2022-12-29T05:48:45.743Z,10.70
2022-12-29T05:51:25.712Z,10.70
2022-12-29T05:54:00.362Z,10.70
2022-12-29T05:56:31.325Z,10.70
2022-12-29T05:59:03.035Z,10.70
2022-12-29T06:01:35.557Z,10.80
2022-12-29T06:04:06.756Z,10.70
2022-12-29T06:06:37.419Z,10.70
2022-12-29T06:09:10.845Z,10.70
2022-12-29T06:11:41.742Z,10.70
2022-12-29T06:14:12.643Z,10.70
2022-12-29T06:16:43.174Z,10.70
2022-12-29T06:19:16.059Z,10.70
2022-12-29T06:21:48.616Z,10.70
2022-12-29T06:24:21.796Z,10.70
2022-12-29T06:26:52.157Z,10.70
2022-12-29T06:29:22.554Z,10.60
2022-12-29T06:31:57.275Z,10.60
2022-12-29T06:34:28.217Z,10.60
2022-12-29T06:36:58.501Z,10.60
2022-12-29T06:39:31.796Z,10.60
2022-12-29T06:42:09.596Z,10.60
2022-12-29T06:45:01.948Z,10.60
2022-12-29T06:47:32.284Z,10.60
2022-12-29T06:50:02.783Z,10.60
2022-12-29T06:52:33.074Z,10.70
2022-12-29T06:55:06.254Z,10.70
2022-12-29T06:57:36.810Z,10.70
2022-12-29T07:00:07.985Z,10.70
2022-12-29T07:02:38.476Z,10.80
2022-12-29T07:05:10.542Z,10.70
2022-12-29T07:07:40.806Z,10.80
2022-12-29T07:10:14.306Z,10.80
2022-12-29T07:12:44.607Z,10.80
2022-12-29T07:15:15.092Z,10.80
2022-12-29T07:17:45.571Z,10.70
2022-12-29T07:20:16.113Z,10.80
2022-12-29T07:22:48.196Z,10.70
2022-12-29T07:25:21.307Z,10.80
2022-12-29T07:27:51.644Z,10.70
2022-12-29T07:30:22.302Z,10.70
2022-12-29T07:32:52.593Z,10.70
2022-12-29T07:35:23.132Z,10.70
2022-12-29T07:37:53.469Z,10.70
2022-12-29T07:40:26.430Z,10.80
2022-12-29T07:42:56.693Z,10.80
2022-12-29T07:45:36.521Z,10.70
2022-12-29T07:48:12.680Z,10.80
2022-12-29T07:50:43.059Z,10.80
2022-12-29T07:53:13.550Z,10.70
2022-12-29T07:55:46.549Z,10.70
2022-12-29T07:58:16.830Z,10.70
2022-12-29T08:00:47.240Z,10.80
2022-12-29T08:03:17.567Z,10.70
2022-12-29T08:05:48.009Z,10.70
2022-12-29T08:08:18.373Z,10.70
2022-12-29T08:10:51.404Z,10.70
2022-12-29T08:13:21.751Z,10.70
2022-12-29T08:15:52.148Z,10.80
2022-12-29T08:18:22.484Z,10.70
2022-12-29T08:20:55.804Z,10.70
2022-12-29T08:23:26.341Z,10.70
2022-12-29T08:26:05.505Z,10.70
2022-12-29T08:28:36.419Z,10.70
2022-12-29T08:31:07.407Z,10.70
2022-12-29T08:33:37.833Z,10.70
2022-12-29T08:36:10.602Z,10.70
2022-12-29T08:38:41.000Z,10.70
2022-12-29T08:41:14.094Z,10.70
2022-12-29T08:43:44.451Z,10.70
2022-12-29T08:46:14.891Z,10.70
2022-12-29T08:48:45.320Z,10.70
2022-12-29T08:51:18.209Z,10.70
2022-12-29T08:53:51.801Z,10.70
2022-12-29T08:56:25.424Z,10.70
2022-12-29T08:58:59.075Z,10.70
2022-12-29T09:01:34.946Z,10.70
2022-12-29T09:04:21.004Z,10.70
2022-12-29T09:06:51.541Z,10.70
2022-12-29T09:09:21.901Z,10.70
2022-12-29T09:11:54.906Z,10.70
2022-12-29T09:14:25.263Z,10.70
2022-12-29T09:17:08.740Z,10.70
2022-12-29T09:19:39.093Z,10.80
2022-12-29T09:22:09.624Z,10.80
2022-12-29T09:24:40.100Z,10.80
2022-12-29T09:27:13.114Z,10.80
2022-12-29T09:29:43.442Z,10.90
2022-12-29T09:32:18.394Z,10.90
2022-12-29T09:34:49.327Z,10.90
2022-12-29T09:37:19.776Z,10.90
2022-12-29T09:39:54.249Z,10.90
2022-12-29T09:42:33.818Z,10.90
2022-12-29T09:45:17.176Z,11.00
2022-12-29T09:47:48.908Z,10.90
2022-12-29T09:50:26.765Z,10.90
2022-12-29T09:53:03.319Z,11.00
2022-12-29T09:55:42.061Z,11.00
2022-12-29T09:58:30.617Z,11.00
2022-12-29T10:01:05.809Z,11.00
2022-12-29T10:03:49.340Z,11.00
2022-12-29T10:06:26.384Z,11.00
2022-12-29T10:09:05.150Z,11.00
2022-12-29T10:12:01.629Z,11.00
2022-12-29T10:14:49.626Z,11.00
2022-12-29T10:17:30.589Z,11.10
2022-12-29T10:20:21.065Z,11.00
2022-12-29T10:23:04.250Z,11.00
2022-12-29T10:25:40.896Z,11.00
2022-12-29T10:28:20.429Z,11.10
2022-12-29T10:30:55.652Z,11.10
2022-12-29T10:33:30.438Z,11.10
2022-12-29T10:36:00.968Z,11.10
2022-12-29T10:38:39.763Z,11.10
2022-12-29T10:41:17.821Z,11.10
2022-12-29T10:43:50.836Z,11.10
2022-12-29T10:46:27.071Z,11.20
2022-12-29T10:48:57.361Z,11.10
2022-12-29T10:51:32.281Z,11.10
2022-12-29T10:54:07.874Z,11.10
2022-12-29T10:56:45.600Z,11.10
2022-12-29T10:59:25.282Z,11.10
2022-12-29T11:02:16.043Z,11.20
2022-12-29T11:05:03.191Z,11.20
2022-12-29T11:07:34.638Z,11.20
2022-12-29T11:10:23.201Z,11.20
2022-12-29T11:13:04.872Z,11.30
2022-12-29T11:15:43.571Z,11.30
2022-12-29T11:18:27.769Z,11.30
2022-12-29T11:21:00.593Z,11.40
2022-12-29T11:23:35.980Z,11.40
2022-12-29T11:26:19.224Z,11.50
2022-12-29T11:28:51.426Z,11.50
2022-12-29T11:31:25.832Z,11.50
2022-12-29T11:33:58.979Z,11.50
2022-12-29T11:36:30.836Z,11.60
2022-12-29T11:39:01.420Z,11.50
2022-12-29T11:41:33.833Z,11.60
2022-12-29T11:44:08.782Z,11.60
2022-12-29T11:46:42.946Z,11.50
2022-12-29T11:49:17.910Z,11.50
2022-12-29T11:51:49.875Z,11.40
2022-12-29T11:57:30.360Z,11.30
2022-12-29T12:00:01.750Z,11.30
2022-12-29T12:02:48.210Z,11.30
2022-12-29T12:05:32.092Z,11.30
2022-12-29T12:08:08.383Z,11.30
2022-12-29T12:10:46.047Z,11.30
2022-12-29T12:13:25.166Z,11.30
2022-12-29T12:16:01.312Z,11.20
2022-12-29T12:18:43.171Z,11.20
2022-12-29T12:21:21.340Z,11.20
2022-12-29T12:24:38.439Z,11.20
2022-12-29T12:27:19.293Z,11.20
2022-12-29T12:29:56.388Z,11.10
2022-12-29T12:32:33.711Z,11.10
2022-12-29T12:35:04.302Z,11.10
2022-12-29T12:37:56.420Z,11.20
2022-12-29T12:40:40.574Z,11.20
2022-12-29T12:43:29.422Z,11.20
2022-12-29T12:46:23.548Z,11.20
2022-12-29T12:49:11.724Z,11.20
2022-12-29T12:51:47.988Z,11.10
2022-12-29T12:54:36.950Z,11.10
2022-12-29T12:57:16.314Z,11.20
2022-12-29T13:00:00.934Z,11.30
2022-12-29T13:02:43.823Z,11.20
2022-12-29T13:05:42.068Z,11.30
2022-12-29T13:08:35.779Z,11.20
2022-12-29T13:11:21.081Z,11.20
2022-12-29T13:14:14.730Z,11.20
2022-12-29T13:16:54.991Z,11.30
2022-12-29T13:19:32.289Z,11.20
2022-12-29T13:22:11.215Z,11.20
2022-12-29T13:24:54.577Z,11.20
2022-12-29T13:27:37.894Z,11.30
2022-12-29T13:30:14.113Z,11.30
2022-12-29T13:33:01.754Z,11.30
2022-12-29T13:35:52.100Z,11.30
2022-12-29T13:38:37.675Z,11.30
2022-12-29T13:41:15.232Z,11.30
2022-12-29T13:43:51.691Z,11.30
2022-12-29T13:46:26.175Z,11.30
2022-12-29T13:49:00.556Z,11.30
2022-12-29T13:51:32.371Z,11.30
2022-12-29T13:54:15.479Z,11.20
2022-12-29T13:56:51.950Z,11.20
2022-12-29T13:59:31.132Z,11.20
2022-12-29T14:02:07.774Z,11.20
2022-12-29T14:04:38.500Z,11.20
2022-12-29T14:07:17.218Z,11.20
2022-12-29T14:09:51.479Z,11.10
2022-12-29T14:12:39.717Z,11.10
2022-12-29T14:15:25.484Z,11.10
2022-12-29T14:18:20.939Z,11.10
2022-12-29T14:20:55.836Z,11.10
2022-12-29T14:23:43.763Z,11.10
2022-12-29T14:26:16.879Z,11.10
2022-12-29T14:28:48.671Z,11.00
2022-12-29T14:31:44.699Z,11.00
2022-12-29T14:34:36.640Z,11.00
2022-12-29T14:37:07.941Z,11.00
2022-12-29T14:39:42.333Z,11.00
2022-12-29T14:42:18.709Z,11.00
2022-12-29T14:44:52.066Z,11.00
2022-12-29T14:47:31.269Z,11.00
2022-12-29T14:50:08.714Z,11.00
2022-12-29T14:52:50.218Z,11.00
2022-12-29T14:55:47.569Z,11.00
2022-12-29T14:58:22.532Z,11.00
2022-12-29T15:00:53.546Z,11.00
2022-12-29T15:03:29.808Z,11.00
2022-12-29T15:06:08.965Z,11.00
2022-12-29T15:08:43.561Z,10.70
2022-12-29T15:11:18.089Z,10.60
2022-12-29T15:13:49.839Z,10.50
2022-12-29T15:16:29.099Z,10.40
2022-12-29T15:19:02.693Z,10.40
2022-12-29T15:21:35.557Z,10.40
2022-12-29T15:24:07.326Z,10.40
2022-12-29T15:26:42.215Z,10.30
2022-12-29T15:29:34.252Z,10.30
2022-12-29T15:32:14.694Z,10.10
2022-12-29T15:34:48.585Z,10.00
2022-12-29T15:37:27.385Z,10.00
2022-12-29T15:39:59.964Z,10.00
2022-12-29T15:42:51.872Z,10.00
2022-12-29T15:45:22.412Z,9.90
2022-12-29T15:47:57.716Z,9.90
2022-12-29T15:50:32.417Z,9.90
2022-12-29T15:53:04.654Z,9.80
2022-12-29T15:55:39.903Z,9.80
2022-12-29T15:58:23.421Z,9.70
2022-12-29T16:00:55.453Z,9.80
2022-12-29T16:03:28.919Z,9.80
2022-12-29T16:06:12.502Z,9.80
2022-12-29T16:08:46.538Z,9.80
2022-12-29T16:11:26.442Z,9.70
2022-12-29T16:13:58.614Z,9.80
2022-12-29T16:16:32.886Z,9.70
2022-12-29T16:19:05.660Z,9.80
2022-12-29T16:21:40.185Z,9.80
2022-12-29T16:24:16.749Z,9.70
2022-12-29T16:26:52.108Z,9.70
2022-12-29T16:29:25.083Z,9.70
2022-12-29T16:32:01.827Z,9.70
2022-12-29T16:34:34.875Z,9.70
2022-12-29T16:37:09.275Z,9.70
2022-12-29T16:39:40.722Z,9.70
2022-12-29T16:42:40.122Z,9.60
2022-12-29T16:46:05.383Z,9.70
2022-12-29T16:48:38.596Z,9.70
2022-12-29T16:51:16.119Z,9.60
2022-12-29T16:53:54.786Z,9.60
2022-12-29T16:56:28.215Z,9.60
2022-12-29T16:59:08.353Z,9.60
2022-12-29T17:01:40.727Z,9.60
2022-12-29T17:04:14.399Z,9.50
2022-12-29T17:06:45.281Z,9.60
2022-12-29T17:09:26.735Z,9.60
2022-12-29T17:12:05.359Z,9.50
2022-12-29T17:14:48.442Z,9.50
2022-12-29T17:17:22.609Z,9.50
2022-12-29T17:19:55.624Z,9.50
2022-12-29T17:22:30.546Z,9.40
2022-12-29T17:25:04.889Z,9.40
2022-12-29T17:27:40.440Z,9.50
2022-12-29T17:30:16.591Z,9.40
2022-12-29T17:32:52.360Z,9.40
2022-12-29T17:35:24.739Z,9.40
2022-12-29T17:37:55.881Z,9.40
2022-12-29T17:40:31.898Z,9.40
2022-12-29T17:43:03.276Z,9.40
2022-12-29T17:45:35.134Z,9.40
2022-12-29T17:48:05.642Z,9.40
2022-12-29T17:50:36.215Z,9.40
2022-12-29T17:53:08.688Z,9.40
2022-12-29T17:55:41.766Z,9.40
2022-12-29T17:58:20.162Z,9.40
2022-12-29T18:00:52.511Z,9.30
2022-12-29T18:03:26.804Z,9.40
2022-12-29T18:05:57.540Z,9.40
2022-12-29T18:08:28.807Z,9.40
2022-12-29T18:11:02.468Z,9.40
2022-12-29T18:13:45.549Z,9.40
2022-12-29T18:16:17.198Z,9.40
2022-12-29T18:18:47.839Z,9.40
2022-12-29T18:21:21.967Z,9.30
2022-12-29T18:23:52.516Z,9.40
2022-12-29T18:26:28.592Z,9.30
2022-12-29T18:29:00.121Z,9.30
2022-12-29T18:31:32.122Z,9.30
2022-12-29T18:34:04.678Z,9.30
2022-12-29T18:36:35.094Z,9.30
2022-12-29T18:39:05.468Z,9.30
2022-12-29T18:41:38.453Z,9.30
2022-12-29T18:44:13.478Z,9.30
2022-12-29T18:46:43.917Z,9.30
2022-12-29T18:49:16.302Z,9.30
2022-12-29T18:51:46.696Z,9.30
2022-12-29T18:54:29.980Z,9.30
2022-12-29T18:57:03.210Z,9.30
2022-12-29T18:59:33.653Z,9.30
2022-12-29T19:02:04.110Z,9.30
2022-12-29T19:04:34.504Z,9.30
2022-12-29T19:07:04.835Z,9.40
2022-12-29T19:09:35.159Z,9.40
2022-12-29T19:12:08.722Z,9.30
2022-12-29T19:14:39.167Z,9.30
2022-12-29T19:17:13.247Z,9.30
2022-12-29T19:19:43.631Z,9.30
2022-12-29T19:22:14.035Z,9.30
2022-12-29T19:24:44.390Z,9.30
2022-12-29T19:27:17.351Z,9.30
2022-12-29T19:29:47.706Z,9.30
2022-12-29T19:32:18.034Z,9.20
2022-12-29T19:34:48.996Z,9.30
2022-12-29T19:37:19.346Z,9.30
2022-12-29T19:39:49.752Z,9.30
2022-12-29T19:42:22.824Z,9.30
2022-12-29T19:44:53.188Z,9.30
2022-12-29T19:47:27.064Z,9.30
2022-12-29T19:50:09.667Z,9.30
2022-12-29T19:52:40.210Z,9.30
2022-12-29T19:55:11.770Z,9.30
2022-12-29T19:57:45.350Z,9.30
2022-12-29T20:00:17.030Z,9.30
2022-12-29T20:02:48.123Z,9.30
2022-12-29T20:05:19.471Z,9.30
2022-12-29T20:07:49.981Z,9.20
2022-12-29T20:10:20.423Z,9.30
2022-12-29T20:12:53.383Z,9.30
2022-12-29T20:15:23.718Z,9.30
2022-12-29T20:20:44.563Z,9.30
2022-12-29T20:23:14.941Z,9.20
2022-12-29T20:25:46.662Z,9.20
2022-12-29T20:28:20.393Z,9.20
2022-12-29T20:30:58.833Z,9.20
2022-12-29T20:33:29.148Z,9.20
2022-12-29T20:36:08.195Z,9.20
2022-12-29T20:38:39.345Z,9.30
2022-12-29T20:41:10.026Z,9.20
2022-12-29T20:43:43.482Z,9.20
2022-12-29T20:46:19.554Z,9.30
2022-12-29T20:48:51.199Z,9.30
2022-12-29T20:51:22.138Z,9.20
2022-12-29T20:53:55.245Z,9.20
2022-12-29T20:56:29.241Z,9.20
2022-12-29T20:59:27.090Z,9.20
2022-12-29T21:01:52.850Z,9.20
2022-12-29T21:04:23.206Z,9.20
2022-12-29T21:06:53.583Z,9.20
2022-12-29T21:09:24.005Z,9.20
2022-12-29T21:11:54.444Z,9.20
2022-12-29T21:14:28.365Z,9.20
2022-12-29T21:16:58.864Z,9.20
2022-12-29T21:19:29.195Z,9.10
2022-12-29T21:21:59.677Z,9.20
2022-12-29T21:24:30.077Z,9.20
2022-12-29T21:27:00.540Z,9.10
2022-12-29T21:29:33.502Z,9.20
2022-12-29T21:32:06.713Z,9.10
2022-12-29T21:34:37.571Z,9.10
2022-12-29T21:37:07.982Z,9.10
2022-12-29T21:39:38.398Z,9.10
2022-12-29T21:42:08.898Z,9.10
2022-12-29T21:44:54.191Z,9.10
2022-12-29T21:47:24.625Z,9.10
2022-12-29T21:49:55.013Z,9.10
2022-12-29T21:52:25.401Z,9.00
2022-12-29T21:55:05.283Z,9.00
2022-12-29T21:57:48.110Z,9.00
2022-12-29T22:00:36.305Z,9.00
2022-12-29T22:03:23.527Z,9.00
2022-12-29T22:06:07.368Z,9.00
2022-12-29T22:08:50.149Z,9.00
2022-12-29T22:11:32.793Z,9.00
2022-12-29T22:14:03.659Z,9.00
2022-12-29T22:16:36.679Z,9.00
2022-12-29T22:19:08.095Z,9.00
2022-12-29T22:21:38.472Z,9.00
2022-12-29T22:24:10.238Z,9.00
2022-12-29T22:26:40.580Z,9.00
2022-12-29T22:29:11.005Z,9.00
2022-12-29T22:31:43.915Z,8.90
2022-12-29T22:34:14.933Z,8.90
2022-12-29T22:36:45.422Z,8.90
2022-12-29T22:39:16.412Z,8.90
2022-12-29T22:41:46.881Z,8.90
2022-12-29T22:44:17.360Z,8.90
2022-12-29T22:46:50.373Z,8.90
2022-12-29T22:49:20.795Z,8.90
2022-12-29T22:51:51.219Z,8.90
2022-12-29T22:54:21.812Z,8.90
2022-12-29T22:56:55.651Z,8.90
2022-12-29T22:59:26.183Z,8.90
2022-12-29T23:01:59.119Z,8.80
2022-12-29T23:07:19.904Z,8.80
2022-12-29T23:09:50.341Z,8.80
2022-12-29T23:12:20.751Z,8.80
2022-12-29T23:14:51.081Z,8.80
2022-12-29T23:17:25.272Z,8.80
2022-12-29T23:19:55.737Z,8.80
2022-12-29T23:22:26.157Z,8.80
2022-12-29T23:25:01.723Z,8.80
2022-12-29T23:27:33.770Z,8.80
2022-12-29T23:30:04.327Z,8.80
2022-12-29T23:32:37.298Z,8.80
2022-12-29T23:35:09.729Z,8.70
2022-12-29T23:37:42.975Z,8.80
2022-12-29T23:40:14.897Z,8.80
2022-12-29T23:42:45.278Z,8.80
2022-12-29T23:45:16.285Z,8.70
2022-12-29T23:47:49.190Z,8.80
2022-12-29T23:50:19.738Z,8.80
2022-12-29T23:52:50.122Z,8.80
2022-12-29T23:55:20.904Z,8.70
2022-12-29T23:57:51.337Z,8.70
